sensor_id;sensor_type;location;lat;lon;timestamp;pressure;altitude;pressure_sealevel;temperature;humidity
75991;BME280;64673;52.276;10.560;2023-07-31T00:00:29;100222.34;;;15.80;88.27
75991;BME280;64673;52.276;10.560;2023-07-31T00:02:55;100223.94;;;15.81;88.88
75991;BME280;64673;52.276;10.560;2023-07-31T00:05:20;100219.22;;;15.64;89.51
75991;BME280;64673;52.276;10.560;2023-07-31T00:07:46;100208.69;;;15.71;89.75
75991;BME280;64673;52.276;10.560;2023-07-31T00:10:11;100214.13;;;15.71;89.70
75991;BME280;64673;52.276;10.560;2023-07-31T00:12:38;100206.25;;;15.61;90.12
75991;BME280;64673;52.276;10.560;2023-07-31T00:15:04;100212.84;;;15.68;88.79
75991;BME280;64673;52.276;10.560;2023-07-31T00:17:29;100215.41;;;15.65;89.85
75991;BME280;64673;52.276;10.560;2023-07-31T00:19:55;100216.31;;;15.60;90.42
75991;BME280;64673;52.276;10.560;2023-07-31T00:22:20;100204.94;;;15.58;92.23
75991;BME280;64673;52.276;10.560;2023-07-31T00:24:45;100205.28;;;15.57;92.82
75991;BME280;64673;52.276;10.560;2023-07-31T00:27:11;100199.25;;;15.68;89.58
75991;BME280;64673;52.276;10.560;2023-07-31T00:29:36;100194.88;;;15.59;90.69
75991;BME280;64673;52.276;10.560;2023-07-31T00:32:01;100187.72;;;15.63;91.86
75991;BME280;64673;52.276;10.560;2023-07-31T00:34:27;100187.22;;;15.61;92.62
75991;BME280;64673;52.276;10.560;2023-07-31T00:36:52;100189.44;;;15.59;93.46
75991;BME280;64673;52.276;10.560;2023-07-31T00:39:18;100183.28;;;15.45;96.00
75991;BME280;64673;52.276;10.560;2023-07-31T00:41:43;100182.63;;;15.48;96.26
75991;BME280;64673;52.276;10.560;2023-07-31T00:44:08;100185.22;;;15.53;96.47
75991;BME280;64673;52.276;10.560;2023-07-31T00:46:33;100184.88;;;15.46;96.86
75991;BME280;64673;52.276;10.560;2023-07-31T00:48:59;100181.06;;;15.47;97.95
75991;BME280;64673;52.276;10.560;2023-07-31T00:51:24;100187.84;;;15.35;97.61
75991;BME280;64673;52.276;10.560;2023-07-31T00:53:50;100175.69;;;15.33;97.58
75991;BME280;64673;52.276;10.560;2023-07-31T00:56:16;100168.44;;;15.28;97.85
75991;BME280;64673;52.276;10.560;2023-07-31T00:58:41;100177.66;;;15.41;98.70
75991;BME280;64673;52.276;10.560;2023-07-31T01:01:07;100173.06;;;15.50;97.07
75991;BME280;64673;52.276;10.560;2023-07-31T01:03:32;100167.13;;;15.48;97.31
75991;BME280;64673;52.276;10.560;2023-07-31T01:06:20;100168.56;;;15.46;98.35
75991;BME280;64673;52.276;10.560;2023-07-31T01:11:30;100160.53;;;15.41;98.44
75991;BME280;64673;52.276;10.560;2023-07-31T01:13:56;100166.44;;;15.34;99.35
75991;BME280;64673;52.276;10.560;2023-07-31T01:16:22;100151.28;;;15.42;100.00
75991;BME280;64673;52.276;10.560;2023-07-31T01:18:47;100135.09;;;15.36;99.16
75991;BME280;64673;52.276;10.560;2023-07-31T01:26:30;100143.72;;;15.61;94.43
75991;BME280;64673;52.276;10.560;2023-07-31T01:29:01;100142.00;;;15.65;94.84
75991;BME280;64673;52.276;10.560;2023-07-31T01:31:29;100129.25;;;15.74;93.54
75991;BME280;64673;52.276;10.560;2023-07-31T01:33:58;100113.84;;;15.69;92.79
75991;BME280;64673;52.276;10.560;2023-07-31T01:36:25;100114.94;;;15.60;95.08
75991;BME280;64673;52.276;10.560;2023-07-31T01:38:51;100110.22;;;15.74;93.74
75991;BME280;64673;52.276;10.560;2023-07-31T01:41:17;100106.63;;;15.56;95.17
75991;BME280;64673;52.276;10.560;2023-07-31T01:43:42;100119.41;;;15.56;94.86
75991;BME280;64673;52.276;10.560;2023-07-31T01:46:08;100108.56;;;15.64;94.14
75991;BME280;64673;52.276;10.560;2023-07-31T01:48:33;100106.00;;;15.68;94.02
75991;BME280;64673;52.276;10.560;2023-07-31T01:51:02;100110.31;;;15.60;93.26
75991;BME280;64673;52.276;10.560;2023-07-31T01:53:27;100097.59;;;15.78;91.60
75991;BME280;64673;52.276;10.560;2023-07-31T01:55:53;100097.81;;;15.59;93.57
75991;BME280;64673;52.276;10.560;2023-07-31T01:58:18;100099.69;;;15.50;93.94
75991;BME280;64673;52.276;10.560;2023-07-31T02:00:43;100094.88;;;15.47;95.21
75991;BME280;64673;52.276;10.560;2023-07-31T02:03:09;100093.91;;;15.43;95.13
75991;BME280;64673;52.276;10.560;2023-07-31T02:05:34;100079.78;;;15.32;95.50
75991;BME280;64673;52.276;10.560;2023-07-31T02:08:00;100077.28;;;15.45;94.36
75991;BME280;64673;52.276;10.560;2023-07-31T02:10:25;100077.78;;;15.47;94.88
75991;BME280;64673;52.276;10.560;2023-07-31T02:12:50;100071.66;;;15.41;96.01
75991;BME280;64673;52.276;10.560;2023-07-31T02:15:16;100062.91;;;15.44;95.77
75991;BME280;64673;52.276;10.560;2023-07-31T02:17:41;100059.16;;;15.62;93.83
75991;BME280;64673;52.276;10.560;2023-07-31T02:20:07;100063.97;;;15.65;93.37
75991;BME280;64673;52.276;10.560;2023-07-31T02:22:32;100037.88;;;15.56;92.21
75991;BME280;64673;52.276;10.560;2023-07-31T02:24:57;100048.09;;;15.59;92.99
75991;BME280;64673;52.276;10.560;2023-07-31T02:27:23;100050.13;;;15.53;94.67
75991;BME280;64673;52.276;10.560;2023-07-31T02:29:52;100047.97;;;15.72;91.87
75991;BME280;64673;52.276;10.560;2023-07-31T02:32:17;100045.16;;;15.47;95.49
75991;BME280;64673;52.276;10.560;2023-07-31T02:34:43;100051.94;;;15.58;94.08
75991;BME280;64673;52.276;10.560;2023-07-31T02:37:08;100047.72;;;15.52;93.80
75991;BME280;64673;52.276;10.560;2023-07-31T02:39:33;100042.28;;;15.52;94.32
75991;BME280;64673;52.276;10.560;2023-07-31T02:41:59;100051.31;;;15.61;94.03
75991;BME280;64673;52.276;10.560;2023-07-31T02:44:25;100050.59;;;15.47;95.81
75991;BME280;64673;52.276;10.560;2023-07-31T02:46:51;100042.28;;;15.52;95.59
75991;BME280;64673;52.276;10.560;2023-07-31T02:49:16;100039.38;;;15.39;96.15
75991;BME280;64673;52.276;10.560;2023-07-31T02:51:41;100035.53;;;15.41;96.09
75991;BME280;64673;52.276;10.560;2023-07-31T02:54:07;100030.09;;;15.41;96.02
75991;BME280;64673;52.276;10.560;2023-07-31T02:56:32;100031.09;;;15.45;97.18
75991;BME280;64673;52.276;10.560;2023-07-31T02:58:57;100025.66;;;15.45;96.38
75991;BME280;64673;52.276;10.560;2023-07-31T03:01:23;100027.00;;;15.56;94.96
75991;BME280;64673;52.276;10.560;2023-07-31T03:03:48;100025.13;;;15.34;97.83
75991;BME280;64673;52.276;10.560;2023-07-31T03:06:13;100022.09;;;15.35;96.64
75991;BME280;64673;52.276;10.560;2023-07-31T03:08:39;100027.53;;;15.35;98.51
75991;BME280;64673;52.276;10.560;2023-07-31T03:11:04;100027.06;;;15.42;96.08
75991;BME280;64673;52.276;10.560;2023-07-31T03:13:29;100019.84;;;15.37;96.23
75991;BME280;64673;52.276;10.560;2023-07-31T03:15:55;100017.91;;;15.29;98.06
75991;BME280;64673;52.276;10.560;2023-07-31T03:18:20;100012.66;;;15.33;96.72
75991;BME280;64673;52.276;10.560;2023-07-31T03:20:45;100001.94;;;15.36;96.50
75991;BME280;64673;52.276;10.560;2023-07-31T03:23:14;100019.22;;;15.41;97.67
75991;BME280;64673;52.276;10.560;2023-07-31T03:25:54;100015.53;;;15.36;97.59
75991;BME280;64673;52.276;10.560;2023-07-31T03:28:20;100021.75;;;15.28;97.86
75991;BME280;64673;52.276;10.560;2023-07-31T03:30:45;100027.38;;;15.41;97.58
75991;BME280;64673;52.276;10.560;2023-07-31T03:33:10;100026.09;;;15.38;96.60
75991;BME280;64673;52.276;10.560;2023-07-31T03:35:36;100026.59;;;15.49;96.06
75991;BME280;64673;52.276;10.560;2023-07-31T03:38:01;100027.53;;;15.35;98.59
75991;BME280;64673;52.276;10.560;2023-07-31T03:40:27;100030.09;;;15.41;96.87
75991;BME280;64673;52.276;10.560;2023-07-31T03:42:52;100031.09;;;15.45;96.92
75991;BME280;64673;52.276;10.560;2023-07-31T03:45:17;100022.09;;;15.35;97.23
75991;BME280;64673;52.276;10.560;2023-07-31T03:47:43;100024.19;;;15.38;97.14
75991;BME280;64673;52.276;10.560;2023-07-31T03:50:08;100026.84;;;15.21;99.95
75991;BME280;64673;52.276;10.560;2023-07-31T03:52:34;100034.41;;;15.33;98.33
75991;BME280;64673;52.276;10.560;2023-07-31T03:54:59;100023.94;;;15.18;99.05
75991;BME280;64673;52.276;10.560;2023-07-31T03:57:24;100023.97;;;15.26;98.67
75991;BME280;64673;52.276;10.560;2023-07-31T03:59:49;100037.09;;;15.24;100.00
75991;BME280;64673;52.276;10.560;2023-07-31T04:02:15;100034.38;;;15.24;100.00
75991;BME280;64673;52.276;10.560;2023-07-31T04:04:41;100037.22;;;15.19;100.00
75991;BME280;64673;52.276;10.560;2023-07-31T04:07:06;100036.44;;;15.27;100.00
75991;BME280;64673;52.276;10.560;2023-07-31T04:09:31;100035.78;;;15.22;100.00
75991;BME280;64673;52.276;10.560;2023-07-31T04:11:57;100035.75;;;15.13;100.00
75991;BME280;64673;52.276;10.560;2023-07-31T04:14:22;100037.44;;;15.31;98.84
75991;BME280;64673;52.276;10.560;2023-07-31T04:16:48;100037.09;;;15.24;99.64
75991;BME280;64673;52.276;10.560;2023-07-31T04:19:15;100023.66;;;15.28;99.05
75991;BME280;64673;52.276;10.560;2023-07-31T04:21:42;100011.47;;;15.17;99.33
75991;BME280;64673;52.276;10.560;2023-07-31T04:24:07;100030.06;;;15.32;98.98
75991;BME280;64673;52.276;10.560;2023-07-31T04:26:32;100027.81;;;15.25;100.00
75991;BME280;64673;52.276;10.560;2023-07-31T04:28:58;100031.00;;;15.27;100.00
75991;BME280;64673;52.276;10.560;2023-07-31T04:31:23;100007.31;;;15.19;99.51
75991;BME280;64673;52.276;10.560;2023-07-31T04:33:48;100014.56;;;15.24;99.49
75991;BME280;64673;52.276;10.560;2023-07-31T04:36:14;100026.91;;;15.38;99.71
75991;BME280;64673;52.276;10.560;2023-07-31T04:38:39;100023.34;;;15.29;100.00
75991;BME280;64673;52.276;10.560;2023-07-31T04:41:06;100018.34;;;15.14;100.00
75991;BME280;64673;52.276;10.560;2023-07-31T04:43:31;100027.16;;;15.20;100.00
75991;BME280;64673;52.276;10.560;2023-07-31T04:45:57;100020.06;;;15.10;100.00
75991;BME280;64673;52.276;10.560;2023-07-31T04:48:23;100029.69;;;15.16;100.00
75991;BME280;64673;52.276;10.560;2023-07-31T04:50:48;100025.16;;;15.03;100.00
75991;BME280;64673;52.276;10.560;2023-07-31T04:53:14;100030.31;;;15.13;100.00
75991;BME280;64673;52.276;10.560;2023-07-31T04:55:39;100017.13;;;14.98;100.00
75991;BME280;64673;52.276;10.560;2023-07-31T04:58:05;100032.97;;;15.05;100.00
75991;BME280;64673;52.276;10.560;2023-07-31T05:00:30;100029.00;;;15.02;100.00
75991;BME280;64673;52.276;10.560;2023-07-31T05:02:55;100033.75;;;14.74;100.00
75991;BME280;64673;52.276;10.560;2023-07-31T05:05:21;100039.06;;;14.57;100.00
75991;BME280;64673;52.276;10.560;2023-07-31T05:07:46;100023.53;;;14.49;100.00
75991;BME280;64673;52.276;10.560;2023-07-31T05:10:11;100022.59;;;14.53;100.00
75991;BME280;64673;52.276;10.560;2023-07-31T05:12:37;100029.38;;;14.64;100.00
75991;BME280;64673;52.276;10.560;2023-07-31T05:15:03;100032.97;;;14.51;100.00
75991;BME280;64673;52.276;10.560;2023-07-31T05:17:28;100028.78;;;14.45;100.00
75991;BME280;64673;52.276;10.560;2023-07-31T05:19:53;100032.25;;;14.59;100.00
75991;BME280;64673;52.276;10.560;2023-07-31T05:22:19;100016.75;;;14.60;100.00
75991;BME280;64673;52.276;10.560;2023-07-31T05:24:44;100020.28;;;14.60;100.00
75991;BME280;64673;52.276;10.560;2023-07-31T05:27:10;100016.13;;;14.63;100.00
75991;BME280;64673;52.276;10.560;2023-07-31T05:29:35;100017.91;;;14.68;100.00
75991;BME280;64673;52.276;10.560;2023-07-31T05:32:01;100014.09;;;14.69;100.00
75991;BME280;64673;52.276;10.560;2023-07-31T05:34:26;100009.47;;;14.69;99.50
75991;BME280;64673;52.276;10.560;2023-07-31T05:36:52;100010.97;;;14.84;98.65
75991;BME280;64673;52.276;10.560;2023-07-31T05:39:17;100011.63;;;14.58;100.00
75991;BME280;64673;52.276;10.560;2023-07-31T05:41:44;100012.28;;;14.64;100.00
75991;BME280;64673;52.276;10.560;2023-07-31T05:44:10;100005.72;;;14.56;100.00
75991;BME280;64673;52.276;10.560;2023-07-31T05:46:35;99989.44;;;14.56;100.00
75991;BME280;64673;52.276;10.560;2023-07-31T05:49:00;99999.78;;;14.54;100.00
75991;BME280;64673;52.276;10.560;2023-07-31T05:51:26;99990.69;;;14.50;100.00
75991;BME280;64673;52.276;10.560;2023-07-31T05:53:52;99998.56;;;14.60;100.00
75991;BME280;64673;52.276;10.560;2023-07-31T05:56:18;99986.34;;;14.49;100.00
75991;BME280;64673;52.276;10.560;2023-07-31T05:58:43;99984.09;;;14.74;100.00
75991;BME280;64673;52.276;10.560;2023-07-31T06:01:09;99981.13;;;14.84;100.00
75991;BME280;64673;52.276;10.560;2023-07-31T06:03:34;99980.19;;;14.88;100.00
75991;BME280;64673;52.276;10.560;2023-07-31T06:05:59;99982.94;;;14.97;100.00
75991;BME280;64673;52.276;10.560;2023-07-31T06:08:25;99986.34;;;15.02;100.00
75991;BME280;64673;52.276;10.560;2023-07-31T06:10:50;99976.28;;;15.03;100.00
75991;BME280;64673;52.276;10.560;2023-07-31T06:13:15;99973.41;;;15.08;100.00
75991;BME280;64673;52.276;10.560;2023-07-31T06:15:41;99974.13;;;15.31;100.00
75991;BME280;64673;52.276;10.560;2023-07-31T06:18:06;99967.28;;;15.33;100.00
75991;BME280;64673;52.276;10.560;2023-07-31T06:20:33;99970.31;;;15.41;100.00
75991;BME280;64673;52.276;10.560;2023-07-31T06:22:59;99967.31;;;15.51;99.70
75991;BME280;64673;52.276;10.560;2023-07-31T06:25:24;99965.22;;;15.48;100.00
75991;BME280;64673;52.276;10.560;2023-07-31T06:27:50;99974.88;;;15.71;98.54
75991;BME280;64673;52.276;10.560;2023-07-31T06:30:15;99975.38;;;15.73;100.00
75991;BME280;64673;52.276;10.560;2023-07-31T06:32:40;99947.38;;;15.64;100.00
75991;BME280;64673;52.276;10.560;2023-07-31T06:35:06;99972.22;;;15.97;100.00
75991;BME280;64673;52.276;10.560;2023-07-31T06:37:32;99973.00;;;15.97;100.00
75991;BME280;64673;52.276;10.560;2023-07-31T06:39:57;99973.81;;;15.98;100.00
75991;BME280;64673;52.276;10.560;2023-07-31T06:42:23;99969.31;;;15.93;100.00
75991;BME280;64673;52.276;10.560;2023-07-31T06:44:48;99970.44;;;15.84;100.00
75991;BME280;64673;52.276;10.560;2023-07-31T06:47:13;99969.94;;;15.90;100.00
75991;BME280;64673;52.276;10.560;2023-07-31T06:49:39;99978.44;;;15.97;100.00
75991;BME280;64673;52.276;10.560;2023-07-31T06:52:04;99965.47;;;16.03;100.00
75991;BME280;64673;52.276;10.560;2023-07-31T06:54:29;99968.06;;;15.99;100.00
75991;BME280;64673;52.276;10.560;2023-07-31T06:56:55;99957.31;;;16.03;100.00
75991;BME280;64673;52.276;10.560;2023-07-31T06:59:20;99957.16;;;16.17;100.00
75991;BME280;64673;52.276;10.560;2023-07-31T07:01:45;99961.63;;;16.21;100.00
75991;BME280;64673;52.276;10.560;2023-07-31T07:04:11;99957.16;;;16.25;100.00
75991;BME280;64673;52.276;10.560;2023-07-31T07:06:36;99951.22;;;16.23;100.00
75991;BME280;64673;52.276;10.560;2023-07-31T07:09:02;99959.88;;;16.17;99.98
75991;BME280;64673;52.276;10.560;2023-07-31T07:11:28;99962.91;;;16.24;100.00
75991;BME280;64673;52.276;10.560;2023-07-31T07:13:53;99973.31;;;16.04;100.00
75991;BME280;64673;52.276;10.560;2023-07-31T07:16:19;99971.41;;;15.96;100.00
75991;BME280;64673;52.276;10.560;2023-07-31T07:18:44;99962.44;;;16.04;100.00
75991;BME280;64673;52.276;10.560;2023-07-31T07:21:09;99956.38;;;16.07;100.00
75991;BME280;64673;52.276;10.560;2023-07-31T07:23:35;99960.22;;;16.06;100.00
75991;BME280;64673;52.276;10.560;2023-07-31T07:26:00;99966.59;;;15.93;100.00
75991;BME280;64673;52.276;10.560;2023-07-31T07:28:25;99977.97;;;15.95;100.00
75991;BME280;64673;52.276;10.560;2023-07-31T07:30:54;99962.13;;;16.06;100.00
75991;BME280;64673;52.276;10.560;2023-07-31T07:33:19;99965.78;;;16.01;100.00
75991;BME280;64673;52.276;10.560;2023-07-31T07:35:45;99964.69;;;16.02;100.00
75991;BME280;64673;52.276;10.560;2023-07-31T07:38:10;99970.13;;;16.02;100.00
75991;BME280;64673;52.276;10.560;2023-07-31T07:40:39;99952.38;;;15.96;100.00
75991;BME280;64673;52.276;10.560;2023-07-31T07:43:05;99970.44;;;16.01;100.00
75991;BME280;64673;52.276;10.560;2023-07-31T07:45:30;99962.75;;;16.11;100.00
75991;BME280;64673;52.276;10.560;2023-07-31T07:47:55;99960.84;;;16.12;99.53
75991;BME280;64673;52.276;10.560;2023-07-31T07:50:21;99958.78;;;16.09;99.35
75991;BME280;64673;52.276;10.560;2023-07-31T07:52:46;99957.81;;;16.05;99.13
75991;BME280;64673;52.276;10.560;2023-07-31T07:55:11;99950.94;;;16.07;99.48
75991;BME280;64673;52.276;10.560;2023-07-31T07:57:37;99961.47;;;16.18;97.64
75991;BME280;64673;52.276;10.560;2023-07-31T08:00:03;99960.53;;;16.14;98.09
75991;BME280;64673;52.276;10.560;2023-07-31T08:02:28;99963.88;;;16.28;97.84
75991;BME280;64673;52.276;10.560;2023-07-31T08:04:53;99961.00;;;16.24;97.56
75991;BME280;64673;52.276;10.560;2023-07-31T08:07:19;99963.09;;;16.19;97.91
75991;BME280;64673;52.276;10.560;2023-07-31T08:09:44;99975.41;;;16.25;98.24
75991;BME280;64673;52.276;10.560;2023-07-31T08:12:09;99971.38;;;16.22;96.87
75991;BME280;64673;52.276;10.560;2023-07-31T08:14:34;99966.09;;;16.34;97.42
75991;BME280;64673;52.276;10.560;2023-07-31T08:17:01;99963.97;;;16.57;97.50
75991;BME280;64673;52.276;10.560;2023-07-31T08:19:27;99951.28;;;16.87;96.93
75991;BME280;64673;52.276;10.560;2023-07-31T08:21:52;99963.28;;;16.95;96.59
75991;BME280;64673;52.276;10.560;2023-07-31T08:24:18;99950.78;;;16.85;95.67
75991;BME280;64673;52.276;10.560;2023-07-31T08:26:43;99956.78;;;17.08;95.10
75991;BME280;64673;52.276;10.560;2023-07-31T08:29:08;99966.63;;;17.00;92.98
75991;BME280;64673;52.276;10.560;2023-07-31T08:31:34;99956.31;;;17.06;95.08
75991;BME280;64673;52.276;10.560;2023-07-31T08:34:00;99957.00;;;17.03;92.95
75991;BME280;64673;52.276;10.560;2023-07-31T08:36:25;99954.56;;;17.10;93.49
75991;BME280;64673;52.276;10.560;2023-07-31T08:38:50;99950.06;;;17.14;92.38
75991;BME280;64673;52.276;10.560;2023-07-31T08:41:16;99949.53;;;16.82;91.95
75991;BME280;64673;52.276;10.560;2023-07-31T08:43:45;99966.88;;;16.69;92.95
75991;BME280;64673;52.276;10.560;2023-07-31T08:46:11;99963.97;;;16.57;90.56
75991;BME280;64673;52.276;10.560;2023-07-31T08:48:38;99963.69;;;16.50;90.30
75991;BME280;64673;52.276;10.560;2023-07-31T08:51:06;99977.47;;;16.62;91.99
75991;BME280;64673;52.276;10.560;2023-07-31T08:53:32;99967.34;;;16.54;91.60
75991;BME280;64673;52.276;10.560;2023-07-31T08:55:58;99976.47;;;16.58;91.31
75991;BME280;64673;52.276;10.560;2023-07-31T08:58:25;99968.81;;;16.43;92.88
75991;BME280;64673;52.276;10.560;2023-07-31T09:00:53;99956.47;;;16.45;91.92
75991;BME280;64673;52.276;10.560;2023-07-31T09:03:22;99953.91;;;16.49;92.30
75991;BME280;64673;52.276;10.560;2023-07-31T09:05:48;99967.03;;;16.56;92.77
75991;BME280;64673;52.276;10.560;2023-07-31T09:08:18;99950.84;;;16.59;93.29
75991;BME280;64673;52.276;10.560;2023-07-31T09:10:45;99952.78;;;16.59;92.62
75991;BME280;64673;52.276;10.560;2023-07-31T09:13:14;99955.81;;;16.66;92.65
75991;BME280;64673;52.276;10.560;2023-07-31T09:15:41;99945.59;;;16.45;92.54
75991;BME280;64673;52.276;10.560;2023-07-31T09:18:09;99950.09;;;16.41;92.70
75991;BME280;64673;52.276;10.560;2023-07-31T09:20:35;99951.34;;;16.61;92.55
75991;BME280;64673;52.276;10.560;2023-07-31T09:23:13;99945.72;;;16.66;92.68
75991;BME280;64673;52.276;10.560;2023-07-31T09:25:40;99931.63;;;16.64;91.97
75991;BME280;64673;52.276;10.560;2023-07-31T09:28:09;99937.53;;;16.75;91.69
75991;BME280;64673;52.276;10.560;2023-07-31T09:30:49;99938.44;;;16.88;92.20
75991;BME280;64673;52.276;10.560;2023-07-31T09:33:15;99928.50;;;16.92;93.32
75991;BME280;64673;52.276;10.560;2023-07-31T09:35:41;99935.84;;;17.00;92.55
75991;BME280;64673;52.276;10.560;2023-07-31T09:38:09;99915.25;;;16.81;91.70
75991;BME280;64673;52.276;10.560;2023-07-31T09:40:39;99934.81;;;16.83;94.04
75991;BME280;64673;52.276;10.560;2023-07-31T09:43:07;99933.41;;;16.69;93.62
75991;BME280;64673;52.276;10.560;2023-07-31T09:45:41;99931.16;;;16.71;94.79
75991;BME280;64673;52.276;10.560;2023-07-31T09:48:12;99939.81;;;16.64;94.14
75991;BME280;64673;52.276;10.560;2023-07-31T09:50:39;99924.59;;;16.55;93.85
75991;BME280;64673;52.276;10.560;2023-07-31T09:53:06;99928.28;;;16.67;94.13
75991;BME280;64673;52.276;10.560;2023-07-31T09:55:32;99925.56;;;16.67;93.57
75991;BME280;64673;52.276;10.560;2023-07-31T09:57:58;99920.09;;;16.59;94.47
75991;BME280;64673;52.276;10.560;2023-07-31T10:00:24;99922.22;;;16.62;94.58
75991;BME280;64673;52.276;10.560;2023-07-31T10:02:54;99920.38;;;16.74;93.68
75991;BME280;64673;52.276;10.560;2023-07-31T10:05:19;99905.06;;;16.61;94.82
75991;BME280;64673;52.276;10.560;2023-07-31T10:07:53;99919.31;;;16.67;93.96
75991;BME280;64673;52.276;10.560;2023-07-31T10:10:20;99923.91;;;16.75;94.84
75991;BME280;64673;52.276;10.560;2023-07-31T10:12:48;99927.44;;;16.75;95.50
75991;BME280;64673;52.276;10.560;2023-07-31T10:15:14;99917.66;;;16.74;94.67
75991;BME280;64673;52.276;10.560;2023-07-31T10:17:40;99917.97;;;16.81;95.47
75991;BME280;64673;52.276;10.560;2023-07-31T10:20:06;99906.78;;;16.83;95.39
75991;BME280;64673;52.276;10.560;2023-07-31T10:22:32;99912.78;;;16.97;94.28
75991;BME280;64673;52.276;10.560;2023-07-31T10:24:59;99887.19;;;17.19;94.33
75991;BME280;64673;52.276;10.560;2023-07-31T10:27:25;99907.56;;;17.42;92.27
75991;BME280;64673;52.276;10.560;2023-07-31T10:29:52;99900.59;;;17.53;93.21
75991;BME280;64673;52.276;10.560;2023-07-31T10:32:19;99900.78;;;17.48;92.64
75991;BME280;64673;52.276;10.560;2023-07-31T10:34:45;99903.06;;;17.46;91.94
75991;BME280;64673;52.276;10.560;2023-07-31T10:37:21;99899.25;;;17.60;90.50
75991;BME280;64673;52.276;10.560;2023-07-31T10:42:27;99877.25;;;18.06;88.49
75991;BME280;64673;52.276;10.560;2023-07-31T10:44:56;99889.19;;;18.14;88.63
75991;BME280;64673;52.276;10.560;2023-07-31T10:47:21;99876.63;;;18.34;88.26
75991;BME280;64673;52.276;10.560;2023-07-31T10:49:46;99874.41;;;18.15;86.35
75991;BME280;64673;52.276;10.560;2023-07-31T10:52:13;99861.94;;;17.93;86.65
75991;BME280;64673;52.276;10.560;2023-07-31T10:54:39;99868.63;;;18.16;86.49
75991;BME280;64673;52.276;10.560;2023-07-31T10:57:19;99870.94;;;18.26;87.27
75991;BME280;64673;52.276;10.560;2023-07-31T10:59:44;99868.44;;;18.21;86.98
75991;BME280;64673;52.276;10.560;2023-07-31T11:02:23;99868.88;;;18.23;86.52
75991;BME280;64673;52.276;10.560;2023-07-31T11:05:11;99880.28;;;18.38;86.95
75991;BME280;64673;52.276;10.560;2023-07-31T11:07:49;99853.81;;;18.50;84.47
75991;BME280;64673;52.276;10.560;2023-07-31T11:10:18;99861.59;;;18.73;84.36
75991;BME280;64673;52.276;10.560;2023-07-31T11:12:45;99858.53;;;18.74;84.16
75991;BME280;64673;52.276;10.560;2023-07-31T11:15:11;99851.22;;;19.15;84.64
75991;BME280;64673;52.276;10.560;2023-07-31T11:17:40;99851.56;;;19.25;83.82
75991;BME280;64673;52.276;10.560;2023-07-31T11:20:06;99842.13;;;18.86;81.25
75991;BME280;64673;52.276;10.560;2023-07-31T11:22:34;99841.44;;;19.01;81.99
75991;BME280;64673;52.276;10.560;2023-07-31T11:25:01;99843.50;;;19.17;82.10
75991;BME280;64673;52.276;10.560;2023-07-31T11:27:29;99827.13;;;19.45;83.02
75991;BME280;64673;52.276;10.560;2023-07-31T11:30:02;99833.34;;;19.69;78.49
75991;BME280;64673;52.276;10.560;2023-07-31T11:32:27;99831.16;;;19.75;79.43
75991;BME280;64673;52.276;10.560;2023-07-31T11:34:53;99817.81;;;20.01;81.14
75991;BME280;64673;52.276;10.560;2023-07-31T11:37:19;99826.94;;;19.93;78.37
75991;BME280;64673;52.276;10.560;2023-07-31T11:40:01;99828.88;;;19.93;76.76
75991;BME280;64673;52.276;10.560;2023-07-31T11:42:27;99836.50;;;19.71;77.41
75991;BME280;64673;52.276;10.560;2023-07-31T11:44:52;99821.34;;;19.34;77.44
75991;BME280;64673;52.276;10.560;2023-07-31T11:47:17;99828.09;;;19.24;78.01
75991;BME280;64673;52.276;10.560;2023-07-31T11:49:43;99823.31;;;19.21;79.50
75991;BME280;64673;52.276;10.560;2023-07-31T11:52:09;99823.19;;;19.18;78.58
75991;BME280;64673;52.276;10.560;2023-07-31T11:54:36;99812.72;;;19.20;79.09
75991;BME280;64673;52.276;10.560;2023-07-31T11:57:02;99811.56;;;19.21;79.70
75991;BME280;64673;52.276;10.560;2023-07-31T11:59:28;99801.75;;;19.32;78.90
75991;BME280;64673;52.276;10.560;2023-07-31T12:01:54;99805.84;;;19.38;78.28
75991;BME280;64673;52.276;10.560;2023-07-31T12:04:20;99806.53;;;19.35;77.25
75991;BME280;64673;52.276;10.560;2023-07-31T12:06:47;99802.34;;;19.25;77.61
75991;BME280;64673;52.276;10.560;2023-07-31T12:09:15;99807.25;;;19.20;77.24
75991;BME280;64673;52.276;10.560;2023-07-31T12:11:44;99805.56;;;19.15;77.98
75991;BME280;64673;52.276;10.560;2023-07-31T12:14:26;99825.81;;;19.14;77.80
75991;BME280;64673;52.276;10.560;2023-07-31T12:17:00;99804.09;;;19.06;78.50
75991;BME280;64673;52.276;10.560;2023-07-31T12:19:29;99793.72;;;18.99;78.04
75991;BME280;64673;52.276;10.560;2023-07-31T12:21:56;99812.63;;;19.04;80.65
75991;BME280;64673;52.276;10.560;2023-07-31T12:24:21;99799.78;;;19.05;79.30
75991;BME280;64673;52.276;10.560;2023-07-31T12:26:48;99802.19;;;19.34;79.20
75991;BME280;64673;52.276;10.560;2023-07-31T12:29:13;99792.66;;;19.28;80.03
75991;BME280;64673;52.276;10.560;2023-07-31T12:31:41;99786.88;;;19.17;79.66
75991;BME280;64673;52.276;10.560;2023-07-31T12:34:17;99799.66;;;19.41;79.67
75991;BME280;64673;52.276;10.560;2023-07-31T12:36:43;99781.00;;;19.31;79.77
75991;BME280;64673;52.276;10.560;2023-07-31T12:39:09;99785.66;;;19.43;79.08
75991;BME280;64673;52.276;10.560;2023-07-31T12:41:34;99791.72;;;19.36;79.34
75991;BME280;64673;52.276;10.560;2023-07-31T12:43:59;99788.91;;;19.20;79.20
75991;BME280;64673;52.276;10.560;2023-07-31T12:46:25;99775.34;;;19.24;80.17
75991;BME280;64673;52.276;10.560;2023-07-31T12:48:50;99788.72;;;19.41;80.80